aviador You're here:

CYFS Decoded Metar

FORT SIMPSON in NT, CANADA
Report Time2017-09-26 03:00:00
UTC Time2017-09-26 03:51:04
Flight Rules vfr VFR
Wind300° at 06 kt
W.Decomp.*RWY 32: 4.5 kt HW 3.9 kt LCW
W.Rank300° ranks 11
Current wind is below 300° avg. (6.0)
Visibility9999 m
Phenomena:N/A
Clouds:Scattered 078 Hf
Broken 091 Hf
Expected CloudBase > 2,000 ft AGL from Temp-Dew spread
Ceiling9,100 ft
Temp11°C (ISA -3)
Dew Point06°C (72% RH)
AAT8.0°C
QNH1006 hPa
Density Alt574 ft
Elevation554 ft
Report Wrong Elevation
Raw Report
CYFS 260300Z 30006KT 15SM SCT078 BKN091 11/06 A2971 RMK AC4AC1
SLP070=

Extra information for CYFS:More info

Metar Taf Metar & Taf Last 4 Metars F.Rules Stats Wind Profile Meteogram Temp Stats Airport Information Weather charts Add Link Nearby VenuesMetar ALERT Operation Metar Decoded Social comments